KGGG/GGG METAR and TAF weather

Enter ICAO airport designator
Station Type Date Time Source
KGGG METAR 2018/12/15 01:53 UTC NOAA

KGGG 150153Z 30010KT 10SM -RA OVC015 08/08 A2996 RMK AO2 SLP147 P0001 T00830078


Station Type Date Time Source
KGGG Decoded METAR 2018/12/15 01:53 UTC NOAA

LONGVIEW GREGG COUNTY AIRPORT , TX, United States (KGGG) 32-23N 094-43W 107M
Dec 14, 2018 - 08:53 PM EST / 2018.12.15 0153 UTC
Wind: from the WNW (300 degrees) at 12 MPH (10 KT):0
Visibility: 10 mile(s):0
Sky conditions: overcast
Weather: light rain
Precipitation last hour: 0.01 inches
Temperature: 46.9 F (8.3 C)
Dew Point: 46.0 F (7.8 C)
Relative Humidity: 96%
Pressure (altimeter): 29.96 in. Hg (1014 hPa)
ob: KGGG 150153Z 30010KT 10SM -RA OVC015 08/08 A2996 RMK AO2 SLP147 P0001 T00830078
cycle: 2

Station Type Date Time Source
KGGG TAF 2018/12/14 19:48 UTC NOAA

TAF
AMD KGGG 141847Z 1419/1518 33016G23KT 6SM -SHRA BR OVC010
TEMPO 1419/1423 33016G21KT 4SM -SHRA BR OVC007
FM142300 36017G23KT 6SM BR VCSH OVC015
FM150100 34016G22KT P6SM OVC025
FM150700 33013G18KT P6SM BKN035
FM151300 32011KT P6SM SCT050


Example: see airport list